createdAt,value
2016-11-21T00:00:13.492Z,9.1
2016-11-21T00:01:13.811Z,9.22
2016-11-21T00:02:13.200Z,9.21
2016-11-21T00:03:13.219Z,9.29
2016-11-21T00:04:13.237Z,9.37
2016-11-21T00:05:13.564Z,9.41
2016-11-21T00:06:13.580Z,9.39
2016-11-21T00:07:13.603Z,9.41
2016-11-21T00:08:13.297Z,9.46
2016-11-21T00:09:13.318Z,9.48
2016-11-21T00:10:13.332Z,9.39
2016-11-21T00:11:13.352Z,9.43
2016-11-21T00:12:14.001Z,9.39
2016-11-21T00:13:13.382Z,9.47
2016-11-21T00:14:13.723Z,9.36
2016-11-21T00:15:13.734Z,9.43
2016-11-21T00:16:13.748Z,9.44
2016-11-21T00:17:13.764Z,9.41
2016-11-21T00:18:13.778Z,9.41
2016-11-21T00:19:13.797Z,9.4
2016-11-21T00:20:14.131Z,9.47
2016-11-21T00:21:14.145Z,9.47
2016-11-21T00:22:13.848Z,9.5
2016-11-21T00:23:13.547Z,9.54
2016-11-21T00:24:13.880Z,9.56
2016-11-21T00:25:14.211Z,9.39
2016-11-21T00:26:14.243Z,9.4
2016-11-21T00:27:13.929Z,9.39
2016-11-21T00:28:14.260Z,9.41
2016-11-21T00:29:13.965Z,9.46
2016-11-21T00:30:13.993Z,9.47
2016-11-21T00:31:14.024Z,9.46
2016-11-21T00:32:14.015Z,9.58
2016-11-21T00:33:14.367Z,9.55
2016-11-21T00:34:14.053Z,9.47
2016-11-21T00:35:14.063Z,9.5
2016-11-21T00:36:13.765Z,9.47
2016-11-21T00:37:14.104Z,9.47
2016-11-21T00:38:14.127Z,9.5
2016-11-21T00:39:14.131Z,9.51
2016-11-21T00:40:13.838Z,9.58
2016-11-21T00:41:14.182Z,9.51
2016-11-21T00:42:14.504Z,9.51
2016-11-21T00:43:14.197Z,9.55
2016-11-21T00:44:14.214Z,9.54
2016-11-21T00:45:14.253Z,9.54
2016-11-21T00:46:14.249Z,9.55
2016-11-21T00:47:14.269Z,9.55
2016-11-21T00:48:14.284Z,9.55
2016-11-21T00:49:13.990Z,9.54
2016-11-21T00:50:14.323Z,9.51
2016-11-21T00:51:14.337Z,9.61
2016-11-21T00:52:14.350Z,9.64
2016-11-21T00:53:14.053Z,9.69
2016-11-21T00:54:14.381Z,9.61
2016-11-21T00:55:14.430Z,9.54
2016-11-21T00:56:14.416Z,9.66
2016-11-21T00:57:14.120Z,9.72
2016-11-21T00:58:14.450Z,9.72
2016-11-21T00:59:14.467Z,9.72
2016-11-21T01:00:14.487Z,9.72
2016-11-21T01:01:14.499Z,9.69
2016-11-21T01:02:14.516Z,9.68
2016-11-21T01:03:14.539Z,9.64
2016-11-21T01:04:14.550Z,9.64
2016-11-21T01:05:14.889Z,9.73
2016-11-21T01:06:14.901Z,9.69
2016-11-21T01:07:14.948Z,9.82
2016-11-21T01:08:14.631Z,9.84
2016-11-21T01:09:14.317Z,9.79
2016-11-21T01:10:14.338Z,9.74
2016-11-21T01:11:14.693Z,9.82
2016-11-21T01:12:14.383Z,9.72
2016-11-21T01:13:15.016Z,9.65
2016-11-21T01:14:14.721Z,9.77
2016-11-21T01:15:14.421Z,9.83
2016-11-21T01:16:14.438Z,9.86
2016-11-21T01:17:14.775Z,9.73
2016-11-21T01:18:14.490Z,9.76
2016-11-21T01:19:14.818Z,9.69
2016-11-21T01:20:14.822Z,9.74
2016-11-21T01:21:14.842Z,9.76
2016-11-21T01:22:14.855Z,9.82
2016-11-21T01:23:14.876Z,9.82
2016-11-21T01:24:14.574Z,9.82
2016-11-21T01:25:14.903Z,9.82
2016-11-21T01:26:15.235Z,9.84
2016-11-21T01:27:14.624Z,9.84
2016-11-21T01:28:14.959Z,9.79
2016-11-21T01:29:14.983Z,9.84
2016-11-21T01:30:15.334Z,9.83
2016-11-21T01:31:15.006Z,9.73
2016-11-21T01:32:14.711Z,9.69
2016-11-21T01:33:14.728Z,9.66
2016-11-21T01:34:15.060Z,9.65
2016-11-21T01:35:15.079Z,9.69
2016-11-21T01:36:14.776Z,9.72
2016-11-21T01:37:14.795Z,9.68
2016-11-21T01:38:14.813Z,9.64
2016-11-21T01:39:15.145Z,9.64
2016-11-21T01:40:15.160Z,9.73
2016-11-21T01:41:15.491Z,9.68
2016-11-21T01:42:14.880Z,9.76
2016-11-21T01:43:15.523Z,9.77
2016-11-21T01:44:15.566Z,9.76
2016-11-21T01:45:15.259Z,9.8
2016-11-21T01:46:15.260Z,9.87
2016-11-21T01:47:15.283Z,9.95
2016-11-21T01:48:15.313Z,9.95
2016-11-21T01:49:15.626Z,9.82
2016-11-21T01:50:15.329Z,9.86
2016-11-21T01:51:15.030Z,9.89
2016-11-21T01:52:15.046Z,9.92
2016-11-21T01:53:15.072Z,9.92
2016-11-21T01:54:15.401Z,9.95
2016-11-21T01:55:15.413Z,10.02
2016-11-21T01:56:15.134Z,9.92
2016-11-21T01:57:15.144Z,9.98
2016-11-21T01:58:15.781Z,9.97
2016-11-21T01:59:15.481Z,9.91
2016-11-21T02:00:15.499Z,9.84
2016-11-21T02:01:15.518Z,9.95
2016-11-21T02:02:15.531Z,10.05
2016-11-21T02:03:15.237Z,9.94
2016-11-21T02:04:15.572Z,9.97
2016-11-21T02:05:15.584Z,9.97
2016-11-21T02:06:15.599Z,9.99
2016-11-21T02:07:15.624Z,10.01
2016-11-21T02:08:15.633Z,10.04
2016-11-21T02:09:15.648Z,9.95
2016-11-21T02:10:30.253Z,9.99
2016-11-21T02:11:16.032Z,10.1
2016-11-21T02:12:15.386Z,10.19
2016-11-21T02:13:15.723Z,10.09
2016-11-21T02:14:16.064Z,10.16
2016-11-21T02:15:16.075Z,10.07
2016-11-21T02:16:16.092Z,10.04
2016-11-21T02:17:15.789Z,10.09
2016-11-21T02:18:16.125Z,10.05
2016-11-21T02:19:15.825Z,10.07
2016-11-21T02:20:15.839Z,10.02
2016-11-21T02:21:15.541Z,10.05
2016-11-21T02:22:15.891Z,10.09
2016-11-21T02:23:15.574Z,10.07
2016-11-21T02:24:15.913Z,9.99
2016-11-21T02:25:15.937Z,9.98
2016-11-21T02:26:15.950Z,10.02
2016-11-21T02:27:15.962Z,9.97
2016-11-21T02:28:15.976Z,9.99
2016-11-21T02:29:16.012Z,9.99
2016-11-21T02:30:16.336Z,9.99
2016-11-21T02:31:15.713Z,9.95
2016-11-21T02:32:15.754Z,10.05
2016-11-21T02:33:15.764Z,10.05
2016-11-21T02:34:16.081Z,10.04
2016-11-21T02:35:15.791Z,10.09
2016-11-21T02:36:15.806Z,10.09
2016-11-21T02:37:15.816Z,10.2
2016-11-21T02:38:16.154Z,10.13
2016-11-21T02:39:16.171Z,10.2
2016-11-21T02:40:16.184Z,10.19
2016-11-21T02:41:16.205Z,10.22
2016-11-21T02:42:15.930Z,10.19
2016-11-21T02:43:16.560Z,10.22
2016-11-21T02:44:15.939Z,10.31
2016-11-21T02:45:16.274Z,10.41
2016-11-21T02:46:16.612Z,10.4
2016-11-21T02:47:16.626Z,10.3
2016-11-21T02:48:16.644Z,10.28
2016-11-21T02:49:16.055Z,10.31
2016-11-21T02:50:16.043Z,10.26
2016-11-21T02:51:16.063Z,10.28
2016-11-21T02:52:16.395Z,10.34
2016-11-21T02:53:16.413Z,10.28
2016-11-21T02:54:16.432Z,10.28
2016-11-21T02:55:16.135Z,10.37
2016-11-21T02:56:16.177Z,10.4
2016-11-21T02:57:16.168Z,10.35
2016-11-21T02:58:16.183Z,10.42
2016-11-21T02:59:16.200Z,10.37
2016-11-21T03:00:16.218Z,10.35
2016-11-21T03:01:16.548Z,10.31
2016-11-21T03:02:16.574Z,10.34
2016-11-21T03:03:16.269Z,10.34
2016-11-21T03:04:16.603Z,10.42
2016-11-21T03:05:16.949Z,10.49
2016-11-21T03:06:16.952Z,10.41
2016-11-21T03:07:16.656Z,10.41
2016-11-21T03:08:16.355Z,10.51
2016-11-21T03:09:17.012Z,10.53
2016-11-21T03:10:16.404Z,10.6
2016-11-21T03:11:16.725Z,10.63
2016-11-21T03:12:16.741Z,10.61
2016-11-21T03:13:16.785Z,10.56
2016-11-21T03:14:16.461Z,10.6
2016-11-21T03:15:16.480Z,10.6
2016-11-21T03:16:16.813Z,10.54
2016-11-21T03:17:16.853Z,10.44
2016-11-21T03:18:16.864Z,10.38
2016-11-21T03:19:16.559Z,10.37
2016-11-21T03:20:16.888Z,10.4
2016-11-21T03:21:16.923Z,10.46
2016-11-21T03:22:16.601Z,10.48
2016-11-21T03:23:16.619Z,10.46
2016-11-21T03:24:17.295Z,10.51
2016-11-21T03:25:16.672Z,10.53
2016-11-21T03:26:16.683Z,10.48
2016-11-21T03:27:16.687Z,10.53
2016-11-21T03:28:16.710Z,10.54
2016-11-21T03:29:17.363Z,10.61
2016-11-21T03:30:16.738Z,10.61
2016-11-21T03:31:16.778Z,10.67
2016-11-21T03:32:17.096Z,10.72
2016-11-21T03:33:16.790Z,10.74
2016-11-21T03:34:17.132Z,10.78
2016-11-21T03:35:16.829Z,10.78
2016-11-21T03:36:16.844Z,10.86
2016-11-21T03:37:16.864Z,10.87
2016-11-21T03:38:17.216Z,10.93
2016-11-21T03:39:17.528Z,10.9
2016-11-21T03:40:17.232Z,10.96
2016-11-21T03:41:17.254Z,11.08
2016-11-21T03:42:17.268Z,11.02
2016-11-21T03:43:17.609Z,11.05
2016-11-21T03:44:17.617Z,11.12
2016-11-21T03:45:17.321Z,11.1
2016-11-21T03:46:17.025Z,11.08
2016-11-21T03:47:17.358Z,11.1
2016-11-21T03:48:17.691Z,11.04
2016-11-21T03:49:17.392Z,10.99
2016-11-21T03:50:17.416Z,10.89
2016-11-21T03:51:17.427Z,10.84
2016-11-21T03:52:17.442Z,10.84
2016-11-21T03:53:17.466Z,10.74
2016-11-21T03:54:17.165Z,10.75
2016-11-21T03:55:17.505Z,10.75
2016-11-21T03:56:17.516Z,10.78
2016-11-21T03:57:17.852Z,10.74
2016-11-21T03:58:17.555Z,10.59
2016-11-21T03:59:17.887Z,10.54
2016-11-21T04:00:17.902Z,10.63
2016-11-21T04:01:17.290Z,10.61
2016-11-21T04:02:17.627Z,10.61
2016-11-21T04:03:17.646Z,10.49
2016-11-21T04:04:17.342Z,10.54
2016-11-21T04:05:17.700Z,10.51
2016-11-21T04:06:17.708Z,10.63
2016-11-21T04:07:17.714Z,10.49
2016-11-21T04:08:18.048Z,10.51
2016-11-21T04:09:17.759Z,10.53
2016-11-21T04:10:17.456Z,10.54
2016-11-21T04:11:17.467Z,10.42
2016-11-21T04:12:17.487Z,10.53
2016-11-21T04:13:17.499Z,10.44
2016-11-21T04:14:17.523Z,10.4
2016-11-21T04:15:17.537Z,10.51
2016-11-21T04:16:18.205Z,10.4
2016-11-21T04:17:18.207Z,10.51
2016-11-21T04:18:17.905Z,10.44
2016-11-21T04:19:17.927Z,10.49
2016-11-21T04:20:17.622Z,10.53
2016-11-21T04:21:18.274Z,10.48
2016-11-21T04:22:17.974Z,10.63
2016-11-21T04:23:17.673Z,10.59
2016-11-21T04:24:18.324Z,10.63
2016-11-21T04:25:18.346Z,10.61
2016-11-21T04:26:18.358Z,10.69
2016-11-21T04:27:18.404Z,10.72
2016-11-21T04:28:18.078Z,10.64
2016-11-21T04:29:18.097Z,10.75
2016-11-21T04:30:17.801Z,10.74
2016-11-21T04:31:18.126Z,10.71
2016-11-21T04:32:18.146Z,10.78
2016-11-21T04:33:17.873Z,10.59
2016-11-21T04:34:18.182Z,10.48
2016-11-21T04:35:18.198Z,10.51
2016-11-21T04:36:17.900Z,10.53
2016-11-21T04:37:18.234Z,10.54
2016-11-21T04:38:18.574Z,10.51
2016-11-21T04:39:18.267Z,10.41
2016-11-21T04:40:18.287Z,10.48
2016-11-21T04:41:18.312Z,10.38
2016-11-21T04:42:18.003Z,10.31
2016-11-21T04:43:18.341Z,10.3
2016-11-21T04:44:18.038Z,10.28
2016-11-21T04:45:18.057Z,10.37
2016-11-21T04:46:18.394Z,10.31
2016-11-21T04:47:18.411Z,10.22
2016-11-21T04:48:18.421Z,10.16
2016-11-21T04:49:18.133Z,10.22
2016-11-21T04:50:18.775Z,10.13
2016-11-21T04:51:18.476Z,10.26
2016-11-21T04:52:18.499Z,10.15
2016-11-21T04:53:18.511Z,10.2
2016-11-21T04:54:18.529Z,10.3
2016-11-21T04:55:18.868Z,10.28
2016-11-21T04:56:18.258Z,10.3
2016-11-21T04:57:18.580Z,10.16
2016-11-21T04:58:18.616Z,10.15
2016-11-21T04:59:18.302Z,10.22
2016-11-21T05:00:18.344Z,10.26
2016-11-21T05:01:18.670Z,10.31
2016-11-21T05:02:18.978Z,10.25
2016-11-21T05:03:19.002Z,10.28
2016-11-21T05:04:18.696Z,10.34
2016-11-21T05:05:18.402Z,10.26
2016-11-21T05:06:19.054Z,10.22
2016-11-21T05:07:18.432Z,10.23
2016-11-21T05:08:18.453Z,10.19
2016-11-21T05:09:18.815Z,10.28
2016-11-21T05:10:19.117Z,10.33
2016-11-21T05:11:18.820Z,10.3
2016-11-21T05:12:18.839Z,10.19
2016-11-21T05:13:18.536Z,10.3
2016-11-21T05:14:18.902Z,10.23
2016-11-21T05:15:18.889Z,10.28
2016-11-21T05:16:18.906Z,10.28
2016-11-21T05:17:18.924Z,10.28
2016-11-21T05:18:18.947Z,10.31
2016-11-21T05:19:18.960Z,10.3
2016-11-21T05:20:18.973Z,10.33
2016-11-21T05:21:19.306Z,10.34
2016-11-21T05:22:18.740Z,10.25
2016-11-21T05:23:18.725Z,10.23
2016-11-21T05:24:19.356Z,10.26
2016-11-21T05:25:18.744Z,10.3
2016-11-21T05:26:18.758Z,10.31
2016-11-21T05:27:19.100Z,10.22
2016-11-21T05:28:19.109Z,10.23
2016-11-21T05:29:19.124Z,10.17
2016-11-21T05:30:19.484Z,10.17
2016-11-21T05:31:18.856Z,10.16
2016-11-21T05:32:19.385Z,10.25
2016-11-21T05:33:19.509Z,10.22
2016-11-21T05:34:19.549Z,10.26
2016-11-21T05:35:18.917Z,10.31
2016-11-21T05:36:19.247Z,10.33
2016-11-21T05:37:18.947Z,10.31
2016-11-21T05:38:18.979Z,10.28
2016-11-21T05:39:18.995Z,10.31
2016-11-21T05:40:19.335Z,10.31
2016-11-21T05:41:19.014Z,10.33
2016-11-21T05:42:19.664Z,10.28
2016-11-21T05:43:19.049Z,10.35
2016-11-21T05:44:19.381Z,10.42
2016-11-21T05:45:19.733Z,10.48
2016-11-21T05:46:19.431Z,10.41
2016-11-21T05:47:19.435Z,10.42
2016-11-21T05:48:19.762Z,10.48
2016-11-21T05:49:19.152Z,10.51
2016-11-21T05:50:19.796Z,10.6
2016-11-21T05:51:19.192Z,10.67
2016-11-21T05:52:19.517Z,10.61
2016-11-21T05:53:19.854Z,10.6
2016-11-21T05:54:19.873Z,10.67
2016-11-21T05:55:19.604Z,10.69
2016-11-21T05:56:19.599Z,10.76
2016-11-21T05:57:19.288Z,10.82
2016-11-21T05:58:19.624Z,10.87
2016-11-21T05:59:19.959Z,10.74
2016-11-21T06:00:19.656Z,10.63
2016-11-21T06:01:19.677Z,10.63
2016-11-21T06:02:19.692Z,10.51
2016-11-21T06:03:19.723Z,10.44
2016-11-21T06:04:19.726Z,10.38
2016-11-21T06:05:19.427Z,10.28
2016-11-21T06:06:19.442Z,10.28
2016-11-21T06:07:19.782Z,10.23
2016-11-21T06:08:19.481Z,10.16
2016-11-21T06:09:19.814Z,10.07
2016-11-21T06:10:20.146Z,9.92
2016-11-21T06:11:19.530Z,9.94
2016-11-21T06:12:19.870Z,9.92
2016-11-21T06:13:20.200Z,9.97
2016-11-21T06:14:19.586Z,9.87
2016-11-21T06:15:19.608Z,9.87
2016-11-21T06:16:19.622Z,9.86
2016-11-21T06:17:19.642Z,9.72
2016-11-21T06:18:20.301Z,9.68
2016-11-21T06:19:19.679Z,9.65
2016-11-21T06:20:20.007Z,9.72
2016-11-21T06:21:20.338Z,9.83
2016-11-21T06:22:20.050Z,9.84
2016-11-21T06:23:20.368Z,9.72
2016-11-21T06:24:20.071Z,9.72
2016-11-21T06:25:20.088Z,9.74
2016-11-21T06:26:20.105Z,9.87
2016-11-21T06:27:20.123Z,9.68
2016-11-21T06:28:19.821Z,9.66
2016-11-21T06:29:20.349Z,9.68
2016-11-21T06:30:19.861Z,9.74
2016-11-21T06:31:20.513Z,9.65
2016-11-21T06:32:20.208Z,9.77
2016-11-21T06:33:19.913Z,9.73
2016-11-21T06:34:20.244Z,9.66
2016-11-21T06:35:20.259Z,9.64
2016-11-21T06:36:20.588Z,9.68
2016-11-21T06:37:19.976Z,9.72
2016-11-21T06:38:20.625Z,9.68
2016-11-21T06:39:20.037Z,9.68
2016-11-21T06:40:20.664Z,9.82
2016-11-21T06:41:20.043Z,9.79
2016-11-21T06:42:20.382Z,9.76
2016-11-21T06:43:20.076Z,9.58
2016-11-21T06:44:20.410Z,9.55
2016-11-21T06:45:20.749Z,9.48
2016-11-21T06:46:20.443Z,9.46
2016-11-21T06:47:20.781Z,9.48
2016-11-21T06:48:20.803Z,9.48
2016-11-21T06:49:20.499Z,9.5
2016-11-21T06:50:20.505Z,9.4
2016-11-21T06:51:20.218Z,9.5
2016-11-21T06:52:20.551Z,9.48
2016-11-21T06:53:20.875Z,9.48
2016-11-21T06:54:20.578Z,9.51
2016-11-21T06:55:20.278Z,9.55
2016-11-21T06:56:20.623Z,9.58
2016-11-21T06:57:20.940Z,9.55
2016-11-21T06:58:20.959Z,9.62
2016-11-21T06:59:20.677Z,9.64
2016-11-21T07:00:20.994Z,9.66
2016-11-21T07:01:20.693Z,9.65
2016-11-21T07:02:20.709Z,9.72
2016-11-21T07:03:20.730Z,9.72
2016-11-21T07:04:20.430Z,9.73
2016-11-21T07:05:21.072Z,9.64
2016-11-21T07:06:20.464Z,9.74
2016-11-21T07:07:20.495Z,9.91
2016-11-21T07:08:21.129Z,9.82
2016-11-21T07:09:21.148Z,9.92
2016-11-21T07:10:20.894Z,9.91
2016-11-21T07:11:20.865Z,9.99
2016-11-21T07:12:20.928Z,9.92
2016-11-21T07:13:21.243Z,9.92
2016-11-21T07:14:20.593Z,10.04
2016-11-21T07:15:20.609Z,10.07
2016-11-21T07:16:20.947Z,10.19
2016-11-21T07:17:20.650Z,10.13
2016-11-21T07:18:21.294Z,10.26
2016-11-21T07:19:20.999Z,10.25
2016-11-21T07:20:20.692Z,10.26
2016-11-21T07:21:21.038Z,10.41
2016-11-21T07:22:20.732Z,10.51
2016-11-21T07:23:21.109Z,10.46
2016-11-21T07:24:21.079Z,10.68
2016-11-21T07:25:20.785Z,10.67
2016-11-21T07:26:21.127Z,10.82
2016-11-21T07:27:21.133Z,10.87
2016-11-21T07:28:21.147Z,10.86
2016-11-21T07:29:21.178Z,10.9
2016-11-21T07:30:21.190Z,11.05
2016-11-21T07:31:21.199Z,11.07
2016-11-21T07:32:21.220Z,11.08
2016-11-21T07:33:21.251Z,11.3
2016-11-21T07:34:20.938Z,11.4
2016-11-21T07:35:21.584Z,11.45
2016-11-21T07:36:21.626Z,11.57
2016-11-21T07:37:21.304Z,11.57
2016-11-21T07:38:21.320Z,11.6
2016-11-21T07:39:21.341Z,11.84
2016-11-21T07:40:21.043Z,11.99
2016-11-21T07:41:21.381Z,12.1
2016-11-21T07:42:21.710Z,12.09
2016-11-21T07:43:21.130Z,12.18
2016-11-21T07:44:21.116Z,12.17
2016-11-21T07:45:21.473Z,12.21
2016-11-21T07:46:21.168Z,12.28
2016-11-21T07:47:21.805Z,12.27
2016-11-21T07:48:21.509Z,12.35
2016-11-21T07:49:21.207Z,12.37
2016-11-21T07:50:21.542Z,12.35
2016-11-21T07:51:21.560Z,12.45
2016-11-21T07:52:21.579Z,12.42
2016-11-21T07:53:21.914Z,12.39
2016-11-21T07:54:21.296Z,12.46
2016-11-21T07:55:21.636Z,12.61
2016-11-21T07:56:21.657Z,12.5
2016-11-21T07:57:21.384Z,12.57
2016-11-21T07:58:21.380Z,12.58
2016-11-21T07:59:21.393Z,12.6
2016-11-21T08:00:22.445Z,12.55
2016-11-21T08:01:21.448Z,12.62
2016-11-21T08:02:21.763Z,12.6
2016-11-21T08:03:21.783Z,12.76
2016-11-21T08:04:21.805Z,12.82
2016-11-21T08:05:21.821Z,12.68
2016-11-21T08:06:21.526Z,12.75
2016-11-21T08:07:22.179Z,12.72
2016-11-21T08:08:21.900Z,12.8
2016-11-21T08:09:22.212Z,12.76
2016-11-21T08:10:21.916Z,12.8
2016-11-21T08:11:21.619Z,12.8
2016-11-21T08:12:21.953Z,12.78
2016-11-21T08:13:21.655Z,12.72
2016-11-21T08:14:22.311Z,12.82
2016-11-21T08:15:22.326Z,12.65
2016-11-21T08:16:22.027Z,12.78
2016-11-21T08:17:21.733Z,12.86
2016-11-21T08:18:21.754Z,12.91
2016-11-21T08:19:21.771Z,12.75
2016-11-21T08:20:22.422Z,12.76
2016-11-21T08:21:22.124Z,12.9
2016-11-21T08:22:21.876Z,12.86
2016-11-21T08:23:22.160Z,12.94
2016-11-21T08:24:22.185Z,12.95
2016-11-21T08:25:21.883Z,13.04
2016-11-21T08:26:22.217Z,13
2016-11-21T08:27:22.234Z,13.13
2016-11-21T08:28:22.259Z,13.11
2016-11-21T08:29:21.959Z,13.15
2016-11-21T08:30:22.292Z,13.13
2016-11-21T08:31:22.014Z,13.16
2016-11-21T08:32:22.644Z,13.08
2016-11-21T08:33:22.354Z,13.13
2016-11-21T08:34:22.372Z,13.03
2016-11-21T08:35:22.074Z,13.12
2016-11-21T08:36:22.429Z,13.13
2016-11-21T08:37:22.445Z,13.16
2016-11-21T08:38:22.765Z,13.12
2016-11-21T08:39:22.158Z,13.23
2016-11-21T08:40:22.799Z,13.13
2016-11-21T08:41:22.191Z,13.22
2016-11-21T08:42:22.523Z,13.22
2016-11-21T08:43:22.860Z,13.27
2016-11-21T08:44:22.563Z,13.25
2016-11-21T08:45:22.601Z,13.3
2016-11-21T08:46:22.598Z,13.23
2016-11-21T08:47:22.639Z,13.27
2016-11-21T08:48:22.327Z,13.3
2016-11-21T08:49:22.345Z,13.28
2016-11-21T08:50:22.673Z,13.49
2016-11-21T08:51:22.402Z,13.74
2016-11-21T08:52:22.413Z,13.72
2016-11-21T08:53:22.742Z,13.85
2016-11-21T08:54:22.754Z,13.97
2016-11-21T08:55:22.464Z,14.05
2016-11-21T08:56:22.816Z,14.1
2016-11-21T08:57:23.136Z,14.12
2016-11-21T08:58:22.830Z,14.28
2016-11-21T08:59:22.555Z,14.5
2016-11-21T09:00:22.881Z,14.6
2016-11-21T09:01:23.211Z,14.6
2016-11-21T09:02:22.931Z,14.62
2016-11-21T09:03:22.941Z,14.78
2016-11-21T09:04:22.639Z,14.81
2016-11-21T09:05:22.982Z,14.88
2016-11-21T09:06:22.679Z,15.15
2016-11-21T09:07:23.014Z,15.27
2016-11-21T09:08:23.034Z,15.36
2016-11-21T09:09:22.747Z,15.64
2016-11-21T09:10:22.764Z,15.7
2016-11-21T09:11:23.409Z,16
2016-11-21T09:12:23.117Z,16.1
2016-11-21T09:13:22.822Z,16.2
2016-11-21T09:14:23.164Z,16.35
2016-11-21T09:15:23.183Z,16.39
2016-11-21T09:16:23.203Z,16.47
2016-11-21T09:17:23.226Z,16.61
2016-11-21T09:18:23.559Z,16.74
2016-11-21T09:19:23.272Z,16.94
2016-11-21T09:20:23.326Z,17.08
2016-11-21T09:21:22.999Z,16.94
2016-11-21T09:22:23.335Z,17.02
2016-11-21T09:23:23.353Z,17.11
2016-11-21T09:24:23.076Z,17.08
2016-11-21T09:25:23.401Z,17.11
2016-11-21T09:26:23.443Z,17.38
2016-11-21T09:27:23.444Z,17.34
2016-11-21T09:28:23.463Z,17.54
2016-11-21T09:29:23.180Z,17.87
2016-11-21T09:30:23.203Z,18.41
2016-11-21T09:31:23.535Z,18.65
2016-11-21T09:32:23.241Z,18.92
2016-11-21T09:33:23.585Z,19.02
2016-11-21T09:34:23.286Z,19.45
2016-11-21T09:35:23.625Z,19.3
2016-11-21T09:36:23.333Z,19.39
2016-11-21T09:37:23.988Z,19.31
2016-11-21T09:38:23.382Z,19.36
2016-11-21T09:39:23.417Z,19.36
2016-11-21T09:40:23.435Z,19.55
2016-11-21T09:41:23.453Z,19.54
2016-11-21T09:42:23.815Z,19.56
2016-11-21T09:43:23.498Z,19.37
2016-11-21T09:44:23.840Z,19.29
2016-11-21T09:45:23.870Z,19.29
2016-11-21T09:46:23.576Z,19.12
2016-11-21T09:47:23.598Z,19.31
2016-11-21T09:48:23.624Z,19.44
2016-11-21T09:49:24.279Z,19.58
2016-11-21T09:50:24.031Z,19.79
2016-11-21T09:51:23.693Z,19.88
2016-11-21T09:52:24.665Z,20.04
2016-11-21T09:53:24.054Z,20.18
2016-11-21T09:54:23.780Z,20.13
2016-11-21T09:55:23.795Z,20.24
2016-11-21T09:56:24.142Z,20.22
2016-11-21T09:57:24.157Z,19.95
2016-11-21T09:58:23.863Z,19.85
2016-11-21T09:59:24.521Z,19.94
2016-11-21T10:00:24.229Z,20.04
2016-11-21T10:01:23.937Z,19.88
2016-11-21T10:02:24.274Z,19.91
2016-11-21T10:03:24.009Z,19.76
2016-11-21T10:04:24.643Z,19.76
2016-11-21T10:05:24.346Z,19.84
2016-11-21T10:06:24.442Z,19.81
2016-11-21T10:07:24.424Z,19.7
2016-11-21T10:08:24.427Z,19.69
2016-11-21T10:09:24.134Z,19.62
2016-11-21T10:10:24.474Z,19.59
2016-11-21T10:11:24.181Z,19.58
2016-11-21T10:12:24.205Z,19.55
2016-11-21T10:13:24.544Z,19.3
2016-11-21T10:14:24.571Z,19.24
2016-11-21T10:15:24.909Z,19.29
2016-11-21T10:16:24.619Z,19.36
2016-11-21T10:17:24.959Z,19.15
2016-11-21T10:18:24.351Z,19.19
2016-11-21T10:19:24.690Z,19.15
2016-11-21T10:20:24.713Z,19.26
2016-11-21T10:21:24.426Z,19.37
2016-11-21T10:22:25.074Z,19.27
2016-11-21T10:23:24.802Z,19.29
2016-11-21T10:24:24.817Z,19.37
2016-11-21T10:25:25.154Z,19.39
2016-11-21T10:26:24.856Z,19.55
2016-11-21T10:27:24.569Z,19.64
2016-11-21T10:28:24.593Z,19.66
2016-11-21T10:29:25.239Z,19.63
2016-11-21T10:30:24.953Z,19.66
2016-11-21T10:31:24.664Z,19.66
2016-11-21T10:32:24.703Z,19.63
2016-11-21T10:33:25.025Z,19.76
2016-11-21T10:34:24.747Z,19.85
2016-11-21T10:35:25.078Z,19.82
2016-11-21T10:36:25.416Z,19.88
2016-11-21T10:37:24.807Z,19.95
2016-11-21T10:38:25.154Z,19.91
2016-11-21T10:39:24.889Z,19.99
2016-11-21T10:40:24.877Z,19.91
2016-11-21T10:41:25.217Z,19.94
2016-11-21T10:42:25.242Z,19.84
2016-11-21T10:43:25.267Z,19.73
2016-11-21T10:44:24.976Z,19.95
2016-11-21T10:45:25.635Z,19.99
2016-11-21T10:46:25.024Z,20.09
2016-11-21T10:47:25.054Z,20.11
2016-11-21T10:48:25.076Z,20.11
2016-11-21T10:49:25.411Z,20.24
2016-11-21T10:50:25.747Z,20.22
2016-11-21T10:51:25.147Z,20.03
2016-11-21T10:52:25.804Z,19.89
2016-11-21T10:53:25.516Z,20.02
2016-11-21T10:54:25.215Z,19.99
2016-11-21T10:55:25.260Z,20.02
2016-11-21T10:56:25.586Z,20.04
2016-11-21T10:57:25.608Z,20.21
2016-11-21T10:58:25.948Z,20.16
2016-11-21T10:59:25.655Z,20.36
2016-11-21T11:00:25.363Z,20.41
2016-11-21T11:01:26.019Z,20.56
2016-11-21T11:02:25.412Z,20.51
2016-11-21T11:03:25.438Z,20.67
2016-11-21T11:04:26.092Z,20.74
2016-11-21T11:05:25.498Z,20.78
2016-11-21T11:06:25.857Z,20.9
2016-11-21T11:07:26.169Z,20.88
2016-11-21T11:08:25.559Z,21.15
2016-11-21T11:09:25.956Z,21.27
2016-11-21T11:10:25.925Z,21.33
2016-11-21T11:11:26.265Z,21.36
2016-11-21T11:12:25.977Z,21.42
2016-11-21T11:13:25.996Z,21.32
2016-11-21T11:14:26.350Z,21.29
2016-11-21T11:15:26.372Z,21.39
2016-11-21T11:16:26.390Z,21.52
2016-11-21T11:17:26.102Z,21.69
2016-11-21T11:18:26.444Z,21.76
2016-11-21T11:19:25.855Z,21.77
2016-11-21T11:20:25.860Z,21.83
2016-11-21T11:21:26.202Z,21.85
2016-11-21T11:22:26.229Z,21.89
2016-11-21T11:23:26.256Z,22.06
2016-11-21T11:24:25.960Z,22.07
2016-11-21T11:25:25.984Z,22.3
2016-11-21T11:26:26.328Z,22.36
2016-11-21T11:27:26.356Z,22.41
2016-11-21T11:28:26.695Z,22.47
2016-11-21T11:29:26.403Z,22.51
2016-11-21T11:30:26.114Z,22.38
2016-11-21T11:31:26.770Z,22.15
2016-11-21T11:32:26.483Z,22.3
2016-11-21T11:33:26.505Z,22.53
2016-11-21T11:34:26.219Z,22.6
2016-11-21T11:35:26.872Z,22.66
2016-11-21T11:36:26.589Z,22.78
2016-11-21T11:37:26.306Z,22.7
2016-11-21T11:38:26.984Z,22.84
2016-11-21T11:39:26.671Z,22.85
2016-11-21T11:40:26.688Z,23.03
2016-11-21T11:41:26.719Z,23.09
2016-11-21T11:42:26.434Z,23.23
2016-11-21T11:43:26.768Z,23.28
2016-11-21T11:44:26.477Z,23.51
2016-11-21T11:45:26.524Z,23.69
2016-11-21T11:46:27.161Z,23.66
2016-11-21T11:47:26.891Z,23.69
2016-11-21T11:48:26.584Z,23.8
2016-11-21T11:49:26.648Z,23.81
2016-11-21T11:50:26.639Z,23.92
2016-11-21T11:51:26.981Z,24.06
2016-11-21T11:52:27.325Z,24.21
2016-11-21T11:53:27.347Z,24.3
2016-11-21T11:54:27.056Z,24.42
2016-11-21T11:55:27.401Z,24.57
2016-11-21T11:56:27.116Z,24.61
2016-11-21T11:57:27.143Z,24.69
2016-11-21T11:58:27.243Z,24.69
2016-11-21T11:59:27.512Z,24.68
2016-11-21T12:00:27.219Z,24.8
2016-11-21T12:01:27.250Z,24.81
2016-11-21T12:02:27.273Z,24.93
2016-11-21T12:03:27.325Z,24.84
2016-11-21T12:04:27.016Z,24.78
2016-11-21T12:05:27.042Z,24.77
2016-11-21T12:06:27.740Z,24.8
2016-11-21T12:07:27.412Z,24.93
2016-11-21T12:08:27.439Z,25.01
2016-11-21T12:09:27.466Z,25.11
2016-11-21T12:10:27.496Z,25.11
2016-11-21T12:11:27.211Z,25.23
2016-11-21T12:12:27.550Z,25.33
2016-11-21T12:13:27.577Z,25.29
2016-11-21T12:14:27.295Z,25.29
2016-11-21T12:15:27.635Z,25.28
2016-11-21T12:16:27.973Z,25.08
2016-11-21T12:17:27.686Z,25.1
2016-11-21T12:18:27.745Z,25.08
2016-11-21T12:19:27.757Z,25.13
2016-11-21T12:20:27.454Z,25.16
2016-11-21T12:21:27.491Z,25.23
2016-11-21T12:22:27.826Z,25.23
2016-11-21T12:23:27.533Z,25.18
2016-11-21T12:24:27.883Z,25.23
2016-11-21T12:25:28.227Z,25.35
2016-11-21T12:26:27.937Z,25.32
2016-11-21T12:27:27.974Z,25.23
2016-11-21T12:28:27.991Z,25.28
2016-11-21T12:29:27.703Z,25.41
2016-11-21T12:30:28.372Z,25.46
2016-11-21T12:31:28.072Z,25.44
2016-11-21T12:32:27.787Z,25.44
2016-11-21T12:33:27.826Z,25.43
2016-11-21T12:34:28.470Z,25.43
2016-11-21T12:35:28.191Z,25.44
2016-11-21T12:36:28.221Z,25.33
2016-11-21T12:37:27.929Z,25.35
2016-11-21T12:38:27.954Z,25.41
2016-11-21T12:39:27.980Z,25.4
2016-11-21T12:40:28.010Z,25.43
2016-11-21T12:41:28.044Z,25.41
2016-11-21T12:42:28.394Z,25.43
2016-11-21T12:43:28.095Z,25.44
2016-11-21T12:44:28.117Z,25.4
2016-11-21T12:45:28.149Z,25.44
2016-11-21T12:46:28.491Z,25.38
2016-11-21T12:47:28.836Z,25.41
2016-11-21T12:48:28.568Z,25.41
2016-11-21T12:49:28.568Z,25.4
2016-11-21T12:50:28.284Z,25.46
2016-11-21T12:51:28.315Z,25.44
2016-11-21T12:52:28.969Z,25.41
2016-11-21T12:53:29.000Z,25.48
2016-11-21T12:54:28.711Z,25.36
2016-11-21T12:55:28.744Z,25.47
2016-11-21T12:56:28.765Z,25.38
2016-11-21T12:57:28.800Z,25.47
2016-11-21T12:58:28.825Z,25.47
2016-11-21T12:59:28.859Z,25.38
2016-11-21T13:00:28.874Z,25.35
2016-11-21T13:01:28.592Z,25.18